createdAt,value
2023-02-16T05:27:43.921Z,99210.59
2023-02-16T05:32:45.570Z,99205.28
2023-02-16T05:37:47.244Z,99203.44
2023-02-16T05:42:53.419Z,99214.00
2023-02-16T05:47:55.164Z,99194.25
2023-02-16T05:52:56.943Z,99225.91
2023-02-16T05:57:58.743Z,99233.56
2023-02-16T06:03:00.721Z,99215.38
2023-02-16T06:08:02.453Z,99245.81
2023-02-16T06:13:04.078Z,99243.28
2023-02-16T06:18:05.795Z,99243.63
2023-02-16T06:23:09.870Z,99258.94
2023-02-16T06:28:11.775Z,99258.94
2023-02-16T06:33:13.427Z,99256.53
2023-02-16T06:38:15.232Z,99264.28
2023-02-16T06:43:16.875Z,99269.41
2023-02-16T06:48:18.525Z,99282.13
2023-02-16T06:53:20.644Z,99285.25
2023-02-16T06:58:22.299Z,99293.22
2023-02-16T07:03:25.001Z,99290.47
2023-02-16T07:08:26.909Z,99299.28
2023-02-16T07:13:28.551Z,99277.34
2023-02-16T07:18:30.373Z,99304.56
2023-02-16T07:23:33.132Z,99303.41
2023-02-16T07:28:36.005Z,99298.00
2023-02-16T07:33:38.103Z,99310.22
2023-02-16T07:38:42.005Z,99245.44
2023-02-16T07:43:44.246Z,99281.66
2023-02-16T07:48:50.211Z,99298.91
2023-02-16T07:53:52.340Z,99319.22
2023-02-16T07:58:59.273Z,99302.16
2023-02-16T08:04:01.176Z,99313.44
2023-02-16T08:09:03.624Z,99322.75
2023-02-16T08:14:05.330Z,99325.28
2023-02-16T08:19:07.298Z,99328.81
2023-02-16T08:24:13.203Z,99327.59
2023-02-16T08:29:14.954Z,99323.38
2023-02-16T08:34:18.897Z,99315.81
2023-02-16T08:39:23.150Z,99337.13
2023-02-16T08:44:26.279Z,99332.84
2023-02-16T08:49:28.441Z,99316.03
2023-02-16T08:54:33.457Z,99316.66
2023-02-16T08:59:35.475Z,99314.84
2023-02-16T09:04:37.381Z,99307.91
2023-02-16T09:09:41.080Z,99305.91
2023-02-16T09:14:44.314Z,99320.75
2023-02-16T09:19:46.048Z,99330.84
2023-02-16T09:24:47.934Z,99326.25
2023-02-16T09:29:50.063Z,99329.88
2023-02-16T09:34:51.746Z,99332.06
2023-02-16T09:39:53.477Z,99333.16
2023-02-16T09:45:14.092Z,99343.59
2023-02-16T09:50:52.086Z,99342.59
2023-02-16T09:56:04.980Z,99322.06
2023-02-16T10:01:42.792Z,99335.16
2023-02-16T10:06:58.490Z,99346.34
2023-02-16T10:12:11.145Z,99336.31
2023-02-16T10:17:28.316Z,99328.41
2023-02-16T10:22:36.894Z,99316.13
2023-02-16T10:27:43.249Z,99322.44
2023-02-16T10:32:59.604Z,99309.78
2023-02-16T10:38:26.245Z,99313.47
2023-02-16T10:44:02.836Z,99310.78
2023-02-16T10:49:04.583Z,99296.69
2023-02-16T10:54:28.354Z,99303.41
2023-02-16T10:59:43.323Z,99310.84
2023-02-16T11:04:48.805Z,99303.59
2023-02-16T11:09:55.872Z,99300.66
2023-02-16T11:15:28.719Z,99284.06
2023-02-16T11:20:32.001Z,99284.03
2023-02-16T11:25:33.879Z,99285.53
2023-02-16T11:30:39.052Z,99283.25
2023-02-16T11:35:43.574Z,99279.00
2023-02-16T11:40:52.922Z,99266.22
2023-02-16T11:46:01.032Z,99248.19
2023-02-16T11:51:06.411Z,99252.72
2023-02-16T11:56:24.965Z,99259.66
2023-02-16T12:01:59.111Z,99247.94
2023-02-16T12:07:08.473Z,99248.47
2023-02-16T12:12:17.872Z,99228.09
2023-02-16T12:17:41.208Z,99213.94
2023-02-16T12:22:59.483Z,99193.06
2023-02-16T12:28:28.379Z,99200.59
2023-02-16T12:33:56.520Z,99181.88
2023-02-16T12:39:07.134Z,99189.22
2023-02-16T12:44:17.514Z,99173.78
2023-02-16T12:49:47.678Z,99177.31
2023-02-16T12:54:55.596Z,99178.75
2023-02-16T13:00:15.700Z,99172.97
2023-02-16T13:05:17.582Z,99169.47
2023-02-16T13:10:38.449Z,99169.66
2023-02-16T13:15:50.792Z,99158.31
2023-02-16T13:21:03.330Z,99134.19
2023-02-16T13:26:05.770Z,99139.22
2023-02-16T13:31:49.596Z,99144.13
2023-02-16T13:37:24.572Z,99125.00
2023-02-16T13:42:44.455Z,99126.41
2023-02-16T13:47:46.408Z,99126.69
2023-02-16T13:52:49.512Z,99130.81
2023-02-16T13:58:11.122Z,99114.53
2023-02-16T14:03:32.702Z,99113.19
2023-02-16T14:08:34.735Z,99090.19
2023-02-16T14:13:39.574Z,99110.47
2023-02-16T14:19:22.574Z,99112.31
2023-02-16T14:24:34.472Z,99108.13
2023-02-16T14:29:53.013Z,99101.41
2023-02-16T14:35:03.777Z,99087.00
2023-02-16T14:40:17.483Z,99088.16
2023-02-16T14:45:42.100Z,99077.47
2023-02-16T14:51:04.693Z,99087.56
2023-02-16T14:56:33.461Z,99088.59
2023-02-16T15:01:46.072Z,99089.19
2023-02-16T15:06:48.432Z,99081.97
2023-02-16T15:12:11.739Z,99085.53
2023-02-16T15:17:30.366Z,99097.25
2023-02-16T15:22:32.461Z,99099.72
2023-02-16T15:27:35.013Z,99084.66
2023-02-16T15:32:37.226Z,99063.56
2023-02-16T15:37:40.621Z,99085.69
2023-02-16T15:42:45.430Z,99084.50
2023-02-16T15:47:47.456Z,99085.25
2023-02-16T15:52:49.453Z,99083.16
2023-02-16T15:57:51.396Z,99086.72
2023-02-16T16:02:58.585Z,99082.78
2023-02-16T16:08:02.737Z,99080.06
2023-02-16T16:13:07.632Z,99082.25
2023-02-16T16:18:32.161Z,99083.28
2023-02-16T16:23:35.365Z,99093.91
2023-02-16T16:28:38.136Z,99097.16
2023-02-16T16:34:00.707Z,99089.72
2023-02-16T16:39:19.592Z,99087.09
2023-02-16T16:44:38.487Z,99089.75
2023-02-16T16:50:01.135Z,99092.88
2023-02-16T16:55:25.569Z,99098.72
2023-02-16T17:00:36.811Z,99106.25
2023-02-16T17:05:40.215Z,99099.47
2023-02-16T17:10:43.536Z,99105.00
2023-02-16T17:15:57.388Z,99101.81
2023-02-16T17:20:59.664Z,99114.19
2023-02-16T17:26:01.436Z,99105.31
2023-02-16T17:31:08.441Z,99116.63
2023-02-16T17:36:14.626Z,99119.13
2023-02-16T17:41:28.106Z,99123.81
2023-02-16T17:46:32.090Z,99130.03
2023-02-16T17:51:36.392Z,99121.25
2023-02-16T17:56:41.761Z,99131.41
2023-02-16T18:01:45.011Z,99120.28
2023-02-16T18:06:46.702Z,99128.06
2023-02-16T18:11:48.399Z,99124.69
2023-02-16T18:16:53.394Z,99119.78
2023-02-16T18:21:55.251Z,99122.44
2023-02-16T18:26:56.979Z,99128.78
2023-02-16T18:31:58.780Z,99125.88
2023-02-16T18:37:01.078Z,99116.72
2023-02-16T18:42:02.879Z,99143.97
2023-02-16T18:47:04.633Z,99118.44
2023-02-16T18:52:06.388Z,99127.56
2023-02-16T18:57:08.201Z,99125.13
2023-02-16T19:02:12.028Z,99127.41
2023-02-16T19:07:13.841Z,99132.97
2023-02-16T19:12:15.568Z,99129.44
2023-02-16T19:17:17.549Z,99129.66
2023-02-16T19:22:19.286Z,99127.47
2023-02-16T19:27:20.954Z,99119.56
2023-02-16T19:32:22.718Z,99125.78
2023-02-16T19:37:24.629Z,99100.59
2023-02-16T19:42:26.524Z,99108.28
2023-02-16T19:47:28.515Z,99104.50
2023-02-16T19:52:30.407Z,99131.78
2023-02-16T19:57:32.113Z,99144.56
2023-02-16T20:02:33.781Z,99117.63
2023-02-16T20:07:36.476Z,99133.31
2023-02-16T20:12:38.201Z,99125.13
2023-02-16T20:17:39.893Z,99129.88
2023-02-16T20:22:41.779Z,99142.72
2023-02-16T20:27:43.569Z,99126.31
2023-02-16T20:32:48.916Z,99110.25
2023-02-16T20:37:50.644Z,99110.97
2023-02-16T20:42:52.361Z,99102.56
2023-02-16T20:47:54.587Z,99101.00
2023-02-16T20:52:56.254Z,99111.22
2023-02-16T20:58:01.621Z,99105.06
2023-02-16T21:03:03.279Z,99099.81
2023-02-16T21:08:05.194Z,99101.53
2023-02-16T21:13:07.137Z,99114.06
2023-02-16T21:18:10.558Z,99106.78
2023-02-16T21:23:12.240Z,99108.25
2023-02-16T21:28:14.236Z,99104.09
2023-02-16T21:33:15.990Z,99094.94
2023-02-16T21:38:17.840Z,99115.44
